sensor_id;sensor_type;location;lat;lon;timestamp;pressure;altitude;pressure_sealevel;temperature;humidity
81125;BME280;72192;52.114;5.424;2023-12-07T00:00:48;102163.59;;;-2.19;100.00
81125;BME280;72192;52.114;5.424;2023-12-07T00:03:27;102154.97;;;-2.24;100.00
81125;BME280;72192;52.114;5.424;2023-12-07T00:06:07;102162.97;;;-2.25;100.00
81125;BME280;72192;52.114;5.424;2023-12-07T00:08:47;102154.22;;;-2.29;100.00
81125;BME280;72192;52.114;5.424;2023-12-07T00:11:27;102154.19;;;-2.27;100.00
81125;BME280;72192;52.114;5.424;2023-12-07T00:14:06;102149.91;;;-2.32;100.00
81125;BME280;72192;52.114;5.424;2023-12-07T00:16:46;102157.97;;;-2.36;100.00
81125;BME280;72192;52.114;5.424;2023-12-07T00:19:27;102156.53;;;-2.45;100.00
81125;BME280;72192;52.114;5.424;2023-12-07T00:22:06;102162.84;;;-2.50;100.00
81125;BME280;72192;52.114;5.424;2023-12-07T00:24:46;102159.50;;;-2.55;100.00
81125;BME280;72192;52.114;5.424;2023-12-07T00:27:26;102151.59;;;-2.57;100.00
81125;BME280;72192;52.114;5.424;2023-12-07T00:30:06;102152.78;;;-2.67;100.00
81125;BME280;72192;52.114;5.424;2023-12-07T00:32:47;102145.94;;;-2.73;100.00
81125;BME280;72192;52.114;5.424;2023-12-07T00:35:27;102148.56;;;-2.73;100.00
81125;BME280;72192;52.114;5.424;2023-12-07T00:38:07;102144.84;;;-2.67;100.00
81125;BME280;72192;52.114;5.424;2023-12-07T00:40:47;102144.69;;;-2.61;100.00
81125;BME280;72192;52.114;5.424;2023-12-07T00:43:27;102143.72;;;-2.58;100.00
81125;BME280;72192;52.114;5.424;2023-12-07T00:46:07;102141.13;;;-2.60;100.00
81125;BME280;72192;52.114;5.424;2023-12-07T00:48:47;102146.34;;;-2.58;100.00
81125;BME280;72192;52.114;5.424;2023-12-07T00:51:27;102152.50;;;-2.58;100.00
81125;BME280;72192;52.114;5.424;2023-12-07T00:54:06;102142.84;;;-2.59;100.00
81125;BME280;72192;52.114;5.424;2023-12-07T00:56:46;102146.47;;;-2.62;100.00
81125;BME280;72192;52.114;5.424;2023-12-07T00:59:26;102143.75;;;-2.60;100.00
81125;BME280;72192;52.114;5.424;2023-12-07T01:02:11;102142.03;;;-2.61;100.00
81125;BME280;72192;52.114;5.424;2023-12-07T01:04:51;102139.81;;;-2.75;100.00
81125;BME280;72192;52.114;5.424;2023-12-07T01:07:31;102145.22;;;-2.79;100.00
81125;BME280;72192;52.114;5.424;2023-12-07T01:10:11;102145.38;;;-2.84;100.00
81125;BME280;72192;52.114;5.424;2023-12-07T01:12:52;102141.78;;;-2.81;100.00
81125;BME280;72192;52.114;5.424;2023-12-07T01:15:31;102143.56;;;-2.82;100.00
81125;BME280;72192;52.114;5.424;2023-12-07T01:18:11;102153.22;;;-2.81;100.00
81125;BME280;72192;52.114;5.424;2023-12-07T01:20:50;102145.38;;;-2.84;100.00
81125;BME280;72192;52.114;5.424;2023-12-07T01:23:31;102149.81;;;-2.84;100.00
81125;BME280;72192;52.114;5.424;2023-12-07T01:26:11;102155.94;;;-2.84;100.00
81125;BME280;72192;52.114;5.424;2023-12-07T01:28:51;102159.34;;;-2.80;100.00
81125;BME280;72192;52.114;5.424;2023-12-07T01:31:30;102162.69;;;-2.74;100.00
81125;BME280;72192;52.114;5.424;2023-12-07T01:34:10;102161.81;;;-2.74;100.00
81125;BME280;72192;52.114;5.424;2023-12-07T01:36:50;102165.34;;;-2.74;100.00
81125;BME280;72192;52.114;5.424;2023-12-07T01:39:29;102161.84;;;-2.76;100.00
81125;BME280;72192;52.114;5.424;2023-12-07T01:42:09;102162.91;;;-2.81;100.00
81125;BME280;72192;52.114;5.424;2023-12-07T01:44:50;102167.13;;;-2.76;100.00
81125;BME280;72192;52.114;5.424;2023-12-07T01:47:30;102168.88;;;-2.75;100.00
81125;BME280;72192;52.114;5.424;2023-12-07T01:50:13;102166.09;;;-2.70;100.00
81125;BME280;72192;52.114;5.424;2023-12-07T01:52:58;102166.16;;;-2.72;100.00
81125;BME280;72192;52.114;5.424;2023-12-07T01:55:41;102161.78;;;-2.73;100.00
81125;BME280;72192;52.114;5.424;2023-12-07T01:58:21;102170.41;;;-2.68;100.00
81125;BME280;72192;52.114;5.424;2023-12-07T02:01:02;102169.47;;;-2.65;100.00
81125;BME280;72192;52.114;5.424;2023-12-07T02:03:43;102168.41;;;-2.60;100.00
81125;BME280;72192;52.114;5.424;2023-12-07T02:06:22;102163.88;;;-2.56;100.00
81125;BME280;72192;52.114;5.424;2023-12-07T02:09:03;102161.22;;;-2.54;100.00
81125;BME280;72192;52.114;5.424;2023-12-07T02:11:42;102162.94;;;-2.53;100.00
81125;BME280;72192;52.114;5.424;2023-12-07T02:14:22;102158.59;;;-2.56;100.00
81125;BME280;72192;52.114;5.424;2023-12-07T02:17:21;102156.84;;;-2.55;100.00
81125;BME280;72192;52.114;5.424;2023-12-07T02:20:20;102157.72;;;-2.55;100.00
81125;BME280;72192;52.114;5.424;2023-12-07T02:23:08;102159.41;;;-2.52;100.00
81125;BME280;72192;52.114;5.424;2023-12-07T02:25:52;102159.41;;;-2.52;100.00
81125;BME280;72192;52.114;5.424;2023-12-07T02:28:33;102162.03;;;-2.52;100.00
81125;BME280;72192;52.114;5.424;2023-12-07T02:31:13;102161.13;;;-2.51;100.00
81125;BME280;72192;52.114;5.424;2023-12-07T02:33:52;102160.16;;;-2.49;100.00
81125;BME280;72192;52.114;5.424;2023-12-07T02:36:33;102163.59;;;-2.47;100.00
81125;BME280;72192;52.114;5.424;2023-12-07T02:39:17;102167.97;;;-2.44;100.00
81125;BME280;72192;52.114;5.424;2023-12-07T02:41:57;102162.63;;;-2.43;100.00
81125;BME280;72192;52.114;5.424;2023-12-07T02:44:39;102166.94;;;-2.40;100.00
81125;BME280;72192;52.114;5.424;2023-12-07T02:47:19;102162.41;;;-2.37;100.00
81125;BME280;72192;52.114;5.424;2023-12-07T02:49:59;102161.41;;;-2.33;100.00
81125;BME280;72192;52.114;5.424;2023-12-07T02:52:39;102156.13;;;-2.33;100.00
81125;BME280;72192;52.114;5.424;2023-12-07T02:55:18;102155.16;;;-2.30;100.00
81125;BME280;72192;52.114;5.424;2023-12-07T02:57:58;102150.03;;;-2.36;100.00
81125;BME280;72192;52.114;5.424;2023-12-07T03:00:38;102153.66;;;-2.39;100.00
81125;BME280;72192;52.114;5.424;2023-12-07T03:03:18;102158.81;;;-2.34;100.00
81125;BME280;72192;52.114;5.424;2023-12-07T03:06:05;102157.03;;;-2.34;100.00
81125;BME280;72192;52.114;5.424;2023-12-07T03:08:44;102158.88;;;-2.36;100.00
81125;BME280;72192;52.114;5.424;2023-12-07T03:11:24;102150.94;;;-2.36;100.00
81125;BME280;72192;52.114;5.424;2023-12-07T03:14:04;102157.97;;;-2.36;100.00
81125;BME280;72192;52.114;5.424;2023-12-07T03:16:44;102162.38;;;-2.35;100.00
81125;BME280;72192;52.114;5.424;2023-12-07T03:19:23;102157.03;;;-2.34;100.00
81125;BME280;72192;52.114;5.424;2023-12-07T03:22:03;102152.75;;;-2.38;100.00
81125;BME280;72192;52.114;5.424;2023-12-07T03:24:46;102166.22;;;-2.45;100.00
81125;BME280;72192;52.114;5.424;2023-12-07T03:27:30;102175.03;;;-2.46;100.00
81125;BME280;72192;52.114;5.424;2023-12-07T03:30:10;102167.22;;;-2.49;100.00
81125;BME280;72192;52.114;5.424;2023-12-07T03:32:50;102172.66;;;-2.54;100.00
81125;BME280;72192;52.114;5.424;2023-12-07T03:35:30;102167.56;;;-2.60;100.00
81125;BME280;72192;52.114;5.424;2023-12-07T03:38:10;102166.75;;;-2.62;100.00
81125;BME280;72192;52.114;5.424;2023-12-07T03:40:49;102168.47;;;-2.61;100.00
81125;BME280;72192;52.114;5.424;2023-12-07T03:43:29;102177.19;;;-2.59;100.00
81125;BME280;72192;52.114;5.424;2023-12-07T03:46:09;102176.44;;;-2.63;100.00
81125;BME280;72192;52.114;5.424;2023-12-07T03:48:49;102170.34;;;-2.65;100.00
81125;BME280;72192;52.114;5.424;2023-12-07T03:51:28;102171.16;;;-2.63;100.00
81125;BME280;72192;52.114;5.424;2023-12-07T03:54:09;102180.88;;;-2.63;100.00
81125;BME280;72192;52.114;5.424;2023-12-07T03:56:48;102172.06;;;-2.64;100.00
81125;BME280;72192;52.114;5.424;2023-12-07T03:59:28;102176.56;;;-2.67;100.00
81125;BME280;72192;52.114;5.424;2023-12-07T04:02:08;102172.16;;;-2.67;100.00
81125;BME280;72192;52.114;5.424;2023-12-07T04:04:49;102178.28;;;-2.66;100.00
81125;BME280;72192;52.114;5.424;2023-12-07T04:07:29;102179.31;;;-2.70;100.00
81125;BME280;72192;52.114;5.424;2023-12-07T04:10:09;102170.63;;;-2.74;100.00
81125;BME280;72192;52.114;5.424;2023-12-07T04:12:49;102173.22;;;-2.72;100.00
81125;BME280;72192;52.114;5.424;2023-12-07T04:15:30;102179.41;;;-2.73;100.00
81125;BME280;72192;52.114;5.424;2023-12-07T04:18:10;102178.53;;;-2.74;100.00
81125;BME280;72192;52.114;5.424;2023-12-07T04:20:50;102177.53;;;-2.70;100.00
81125;BME280;72192;52.114;5.424;2023-12-07T04:23:29;102170.53;;;-2.71;100.00
81125;BME280;72192;52.114;5.424;2023-12-07T04:26:09;102177.59;;;-2.71;100.00
81125;BME280;72192;52.114;5.424;2023-12-07T04:28:49;102183.69;;;-2.69;100.00
81125;BME280;72192;52.114;5.424;2023-12-07T04:31:28;102181.00;;;-2.68;100.00
81125;BME280;72192;52.114;5.424;2023-12-07T04:34:08;102178.34;;;-2.68;100.00
81125;BME280;72192;52.114;5.424;2023-12-07T04:36:49;102174.84;;;-2.68;100.00
81125;BME280;72192;52.114;5.424;2023-12-07T04:39:29;102173.09;;;-2.69;100.00
81125;BME280;72192;52.114;5.424;2023-12-07T04:42:08;102180.13;;;-2.68;100.00
81125;BME280;72192;52.114;5.424;2023-12-07T04:44:48;102176.63;;;-2.69;100.00
81125;BME280;72192;52.114;5.424;2023-12-07T04:47:28;102174.88;;;-2.70;100.00
81125;BME280;72192;52.114;5.424;2023-12-07T04:50:08;102174.94;;;-2.71;100.00
81125;BME280;72192;52.114;5.424;2023-12-07T04:52:48;102173.16;;;-2.71;100.00
81125;BME280;72192;52.114;5.424;2023-12-07T04:55:27;102176.56;;;-2.67;100.00
81125;BME280;72192;52.114;5.424;2023-12-07T04:58:07;102177.31;;;-2.62;100.00
81125;BME280;72192;52.114;5.424;2023-12-07T05:00:47;102165.59;;;-2.53;100.00
81125;BME280;72192;52.114;5.424;2023-12-07T05:03:27;102164.56;;;-2.49;100.00
81125;BME280;72192;52.114;5.424;2023-12-07T05:06:06;102165.38;;;-2.46;100.00
81125;BME280;72192;52.114;5.424;2023-12-07T05:08:46;102167.75;;;-2.38;100.00
81125;BME280;72192;52.114;5.424;2023-12-07T05:11:27;102165.69;;;-2.28;100.00
81125;BME280;72192;52.114;5.424;2023-12-07T05:14:06;102156.63;;;-2.21;100.00
81125;BME280;72192;52.114;5.424;2023-12-07T05:16:46;102159.13;;;-2.17;100.00
81125;BME280;72192;52.114;5.424;2023-12-07T05:19:26;102151.00;;;-2.11;100.00
81125;BME280;72192;52.114;5.424;2023-12-07T05:22:06;102151.63;;;-2.03;100.00
81125;BME280;72192;52.114;5.424;2023-12-07T05:24:46;102159.50;;;-2.01;100.00
81125;BME280;72192;52.114;5.424;2023-12-07T05:27:26;102151.50;;;-1.99;100.00
81125;BME280;72192;52.114;5.424;2023-12-07T05:30:06;102149.53;;;-1.93;100.00
81125;BME280;72192;52.114;5.424;2023-12-07T05:32:46;102147.56;;;-1.88;100.00
81125;BME280;72192;52.114;5.424;2023-12-07T05:35:26;102143.94;;;-1.84;100.00
81125;BME280;72192;52.114;5.424;2023-12-07T05:38:05;102155.25;;;-1.80;100.00
81125;BME280;72192;52.114;5.424;2023-12-07T05:40:45;102148.09;;;-1.77;100.00
81125;BME280;72192;52.114;5.424;2023-12-07T05:43:25;102153.22;;;-1.72;100.00
81125;BME280;72192;52.114;5.424;2023-12-07T05:46:05;102152.16;;;-1.66;100.00
81125;BME280;72192;52.114;5.424;2023-12-07T05:48:44;102160.00;;;-1.63;100.00
81125;BME280;72192;52.114;5.424;2023-12-07T05:51:24;102142.94;;;-1.55;100.00
81125;BME280;72192;52.114;5.424;2023-12-07T05:54:04;102146.19;;;-1.47;100.00
81125;BME280;72192;52.114;5.424;2023-12-07T05:56:44;102147.59;;;-1.38;100.00
81125;BME280;72192;52.114;5.424;2023-12-07T05:59:28;102149.19;;;-1.32;100.00
81125;BME280;72192;52.114;5.424;2023-12-07T06:02:10;102144.53;;;-1.26;100.00
81125;BME280;72192;52.114;5.424;2023-12-07T06:04:49;102139.91;;;-1.21;100.00
81125;BME280;72192;52.114;5.424;2023-12-07T06:07:31;102145.13;;;-1.18;100.00
81125;BME280;72192;52.114;5.424;2023-12-07T06:10:12;102153.88;;;-1.16;100.00
81125;BME280;72192;52.114;5.424;2023-12-07T06:12:52;102149.31;;;-1.12;100.00
81125;BME280;72192;52.114;5.424;2023-12-07T06:15:34;102160.78;;;-1.11;100.00
81125;BME280;72192;52.114;5.424;2023-12-07T06:18:16;102173.16;;;-1.12;100.00
81125;BME280;72192;52.114;5.424;2023-12-07T06:20:56;102167.81;;;-1.10;100.00
81125;BME280;72192;52.114;5.424;2023-12-07T06:23:35;102171.38;;;-1.11;100.00
81125;BME280;72192;52.114;5.424;2023-12-07T06:26:16;102160.66;;;-1.08;100.00
81125;BME280;72192;52.114;5.424;2023-12-07T06:28:56;102173.16;;;-1.12;100.00
81125;BME280;72192;52.114;5.424;2023-12-07T06:31:35;102166.94;;;-1.11;100.00
81125;BME280;72192;52.114;5.424;2023-12-07T06:34:15;102172.25;;;-1.11;100.00
81125;BME280;72192;52.114;5.424;2023-12-07T06:37:02;102173.88;;;-1.07;100.00
81125;BME280;72192;52.114;5.424;2023-12-07T06:39:42;102170.34;;;-1.07;100.00
81125;BME280;72192;52.114;5.424;2023-12-07T06:42:22;102174.88;;;-1.11;100.00
81125;BME280;72192;52.114;5.424;2023-12-07T06:45:02;102175.88;;;-1.13;100.00
81125;BME280;72192;52.114;5.424;2023-12-07T06:47:42;102175.88;;;-1.13;100.00
81125;BME280;72192;52.114;5.424;2023-12-07T06:50:21;102166.06;;;-1.11;100.00
81125;BME280;72192;52.114;5.424;2023-12-07T06:53:02;102184.50;;;-1.08;100.00
81125;BME280;72192;52.114;5.424;2023-12-07T06:55:42;102178.31;;;-1.07;100.00
81125;BME280;72192;52.114;5.424;2023-12-07T06:58:21;102183.53;;;-1.06;100.00
81125;BME280;72192;52.114;5.424;2023-12-07T07:01:02;102181.00;;;-1.09;100.00
81125;BME280;72192;52.114;5.424;2023-12-07T07:03:41;102177.66;;;-1.14;100.00
81125;BME280;72192;52.114;5.424;2023-12-07T07:06:21;102173.44;;;-1.20;100.00
81125;BME280;72192;52.114;5.424;2023-12-07T07:09:01;102174.34;;;-1.21;100.00
81125;BME280;72192;52.114;5.424;2023-12-07T07:11:48;102168.19;;;-1.21;100.00
81125;BME280;72192;52.114;5.424;2023-12-07T07:14:27;102161.09;;;-1.21;100.00
81125;BME280;72192;52.114;5.424;2023-12-07T07:17:07;102169.00;;;-1.19;100.00
81125;BME280;72192;52.114;5.424;2023-12-07T07:19:47;102177.72;;;-1.16;100.00
81125;BME280;72192;52.114;5.424;2023-12-07T07:22:27;102183.88;;;-1.15;100.00
81125;BME280;72192;52.114;5.424;2023-12-07T07:25:07;102176.72;;;-1.13;100.00
81125;BME280;72192;52.114;5.424;2023-12-07T07:27:46;102173.00;;;-1.07;100.00
81125;BME280;72192;52.114;5.424;2023-12-07T07:30:26;102187.22;;;-1.10;100.00
81125;BME280;72192;52.114;5.424;2023-12-07T07:33:06;102183.75;;;-1.12;100.00
81125;BME280;72192;52.114;5.424;2023-12-07T07:35:45;102189.97;;;-1.13;100.00
81125;BME280;72192;52.114;5.424;2023-12-07T07:38:25;102184.69;;;-1.13;100.00
81125;BME280;72192;52.114;5.424;2023-12-07T07:41:05;102193.63;;;-1.16;100.00
81125;BME280;72192;52.114;5.424;2023-12-07T07:43:45;102184.03;;;-1.20;100.00
81125;BME280;72192;52.114;5.424;2023-12-07T07:46:24;102186.72;;;-1.21;100.00
81125;BME280;72192;52.114;5.424;2023-12-07T07:49:04;102178.03;;;-1.25;100.00
81125;BME280;72192;52.114;5.424;2023-12-07T07:51:44;102181.38;;;-1.20;100.00
81125;BME280;72192;52.114;5.424;2023-12-07T07:54:24;102184.88;;;-1.19;100.00
81125;BME280;72192;52.114;5.424;2023-12-07T07:57:04;102193.56;;;-1.14;100.00
81125;BME280;72192;52.114;5.424;2023-12-07T07:59:44;102195.50;;;-1.19;100.00
81125;BME280;72192;52.114;5.424;2023-12-07T08:02:25;102192.84;;;-1.19;100.00
81125;BME280;72192;52.114;5.424;2023-12-07T08:05:05;102191.91;;;-1.18;100.00
81125;BME280;72192;52.114;5.424;2023-12-07T08:07:45;102195.41;;;-1.16;100.00
81125;BME280;72192;52.114;5.424;2023-12-07T08:10:25;102194.41;;;-1.13;100.00
81125;BME280;72192;52.114;5.424;2023-12-07T08:13:04;102187.44;;;-1.16;100.00
81125;BME280;72192;52.114;5.424;2023-12-07T08:15:46;102180.50;;;-1.20;100.00
81125;BME280;72192;52.114;5.424;2023-12-07T08:18:26;102186.63;;;-1.18;100.00
81125;BME280;72192;52.114;5.424;2023-12-07T08:21:05;102188.19;;;-1.12;100.00
81125;BME280;72192;52.114;5.424;2023-12-07T08:23:46;102191.59;;;-1.09;100.00
81125;BME280;72192;52.114;5.424;2023-12-07T08:26:26;102195.09;;;-1.08;100.00
81125;BME280;72192;52.114;5.424;2023-12-07T08:29:06;102194.34;;;-1.12;100.00
81125;BME280;72192;52.114;5.424;2023-12-07T08:31:45;102193.44;;;-1.11;100.00
81125;BME280;72192;52.114;5.424;2023-12-07T08:34:25;102185.66;;;-1.16;100.00
81125;BME280;72192;52.114;5.424;2023-12-07T08:37:05;102183.88;;;-1.15;100.00
81125;BME280;72192;52.114;5.424;2023-12-07T08:39:46;102183.81;;;-1.13;100.00
81125;BME280;72192;52.114;5.424;2023-12-07T08:42:26;102191.72;;;-1.12;100.00
81125;BME280;72192;52.114;5.424;2023-12-07T08:45:06;102184.50;;;-1.08;100.00
81125;BME280;72192;52.114;5.424;2023-12-07T08:47:46;102193.22;;;-1.05;100.00
81125;BME280;72192;52.114;5.424;2023-12-07T08:50:26;102184.22;;;-1.01;100.00
81125;BME280;72192;52.114;5.424;2023-12-07T08:53:06;102178.78;;;-0.96;100.00
81125;BME280;72192;52.114;5.424;2023-12-07T08:55:46;102184.13;;;-0.98;100.00
81125;BME280;72192;52.114;5.424;2023-12-07T08:58:26;102179.50;;;-0.93;100.00
81125;BME280;72192;52.114;5.424;2023-12-07T09:01:06;102183.94;;;-0.93;100.00
81125;BME280;72192;52.114;5.424;2023-12-07T09:03:50;102178.59;;;-0.92;100.00
81125;BME280;72192;52.114;5.424;2023-12-07T09:06:29;102182.00;;;-0.88;100.00
81125;BME280;72192;52.114;5.424;2023-12-07T09:09:09;102181.09;;;-0.87;100.00
81125;BME280;72192;52.114;5.424;2023-12-07T09:11:51;102175.59;;;-0.82;100.00
81125;BME280;72192;52.114;5.424;2023-12-07T09:14:31;102170.88;;;-0.74;100.00
81125;BME280;72192;52.114;5.424;2023-12-07T09:17:12;102156.69;;;-0.73;100.00
81125;BME280;72192;52.114;5.424;2023-12-07T09:19:51;102152.09;;;-0.68;100.00
81125;BME280;72192;52.114;5.424;2023-12-07T09:22:32;102165.22;;;-0.65;100.00
81125;BME280;72192;52.114;5.424;2023-12-07T09:25:13;102163.38;;;-0.63;100.00
81125;BME280;72192;52.114;5.424;2023-12-07T09:27:54;102164.09;;;-0.60;100.00
81125;BME280;72192;52.114;5.424;2023-12-07T09:30:35;102168.59;;;-0.62;100.00
81125;BME280;72192;52.114;5.424;2023-12-07T09:33:14;102162.50;;;-0.64;100.00
81125;BME280;72192;52.114;5.424;2023-12-07T09:35:56;102173.03;;;-0.62;100.00
81125;BME280;72192;52.114;5.424;2023-12-07T09:38:34;102170.41;;;-0.62;100.00
81125;BME280;72192;52.114;5.424;2023-12-07T09:41:15;102173.19;;;-0.65;100.00
81125;BME280;72192;52.114;5.424;2023-12-07T09:43:52;102171.50;;;-0.68;100.00
81125;BME280;72192;52.114;5.424;2023-12-07T09:46:37;102172.53;;;-0.72;100.00
81125;BME280;72192;52.114;5.424;2023-12-07T09:49:17;102181.28;;;-0.70;100.00
81125;BME280;72192;52.114;5.424;2023-12-07T09:52:07;102171.53;;;-0.69;100.00
81125;BME280;72192;52.114;5.424;2023-12-07T09:54:43;102179.97;;;-0.58;100.00
81125;BME280;72192;52.114;5.424;2023-12-07T09:57:27;102175.53;;;-0.57;100.00
81125;BME280;72192;52.114;5.424;2023-12-07T10:00:08;102165.97;;;-0.62;100.00
81125;BME280;72192;52.114;5.424;2023-12-07T10:02:52;102160.91;;;-0.68;100.00
81125;BME280;72192;52.114;5.424;2023-12-07T10:05:31;102158.19;;;-0.66;100.00
81125;BME280;72192;52.114;5.424;2023-12-07T10:08:33;102147.34;;;-0.60;100.00
81125;BME280;72192;52.114;5.424;2023-12-07T10:11:16;102141.22;;;-0.62;100.00
81125;BME280;72192;52.114;5.424;2023-12-07T10:13:56;102127.81;;;-0.57;100.00
81125;BME280;72192;52.114;5.424;2023-12-07T10:16:37;102135.63;;;-0.54;100.00
81125;BME280;72192;52.114;5.424;2023-12-07T10:19:18;102122.53;;;-0.59;100.00
81125;BME280;72192;52.114;5.424;2023-12-07T10:21:59;102122.44;;;-0.56;100.00
81125;BME280;72192;52.114;5.424;2023-12-07T10:24:44;102108.13;;;-0.52;100.00
81125;BME280;72192;52.114;5.424;2023-12-07T10:27:24;102107.13;;;-0.49;100.00
81125;BME280;72192;52.114;5.424;2023-12-07T10:30:09;102104.47;;;-0.49;100.00
81125;BME280;72192;52.114;5.424;2023-12-07T10:32:50;102098.06;;;-0.44;100.00
81125;BME280;72192;52.114;5.424;2023-12-07T10:35:31;102102.28;;;-0.38;100.00
81125;BME280;72192;52.114;5.424;2023-12-07T10:38:10;102103.06;;;-0.36;100.00
81125;BME280;72192;52.114;5.424;2023-12-07T10:41:04;102106.66;;;-0.37;100.00
81125;BME280;72192;52.114;5.424;2023-12-07T10:43:53;102104.06;;;-0.39;100.00
81125;BME280;72192;52.114;5.424;2023-12-07T10:46:42;102097.00;;;-0.40;100.00
81125;BME280;72192;52.114;5.424;2023-12-07T10:49:25;102092.59;;;-0.39;100.00
81125;BME280;72192;52.114;5.424;2023-12-07T10:52:07;102085.31;;;-0.34;100.00
81125;BME280;72192;52.114;5.424;2023-12-07T10:55:03;102077.03;;;-0.26;100.00
81125;BME280;72192;52.114;5.424;2023-12-07T10:57:46;102070.47;;;-0.18;100.00
81125;BME280;72192;52.114;5.424;2023-12-07T11:00:27;102077.44;;;-0.15;100.00
81125;BME280;72192;52.114;5.424;2023-12-07T11:03:08;102071.06;;;-0.11;100.00
81125;BME280;72192;52.114;5.424;2023-12-07T11:05:49;102077.84;;;-0.04;100.00
81125;BME280;72192;52.114;5.424;2023-12-07T11:08:49;102074.34;;;-0.05;100.00
81125;BME280;72192;52.114;5.424;2023-12-07T11:11:47;102072.69;;;-0.07;100.00
81125;BME280;72192;52.114;5.424;2023-12-07T11:14:37;102065.38;;;-0.02;100.00
81125;BME280;72192;52.114;5.424;2023-12-07T11:17:18;102058.28;;;0.19;100.00
81125;BME280;72192;52.114;5.424;2023-12-07T11:19:50;102047.25;;;0.28;100.00
81125;BME280;72192;52.114;5.424;2023-12-07T11:22:31;102046.75;;;0.39;100.00
81125;BME280;72192;52.114;5.424;2023-12-07T11:25:10;102047.59;;;0.41;100.00
81125;BME280;72192;52.114;5.424;2023-12-07T11:28:00;102036.16;;;0.39;100.00
81125;BME280;72192;52.114;5.424;2023-12-07T11:30:51;102031.09;;;0.53;100.00
81125;BME280;72192;52.114;5.424;2023-12-07T11:33:31;102019.09;;;0.63;100.00
81125;BME280;72192;52.114;5.424;2023-12-07T11:36:11;102011.13;;;0.63;100.00
81125;BME280;72192;52.114;5.424;2023-12-07T11:41:54;102011.22;;;0.62;100.00
81125;BME280;72192;52.114;5.424;2023-12-07T11:44:37;101997.19;;;0.58;100.00
81125;BME280;72192;52.114;5.424;2023-12-07T11:47:19;101997.41;;;0.53;100.00
81125;BME280;72192;52.114;5.424;2023-12-07T11:50:03;101994.91;;;0.50;100.00
81125;BME280;72192;52.114;5.424;2023-12-07T11:52:42;101997.25;;;0.56;100.00
81125;BME280;72192;52.114;5.424;2023-12-07T11:55:24;101999.56;;;0.64;100.00
81125;BME280;72192;52.114;5.424;2023-12-07T11:58:04;101999.81;;;0.60;100.00
81125;BME280;72192;52.114;5.424;2023-12-07T12:00:45;101994.69;;;0.55;100.00
81125;BME280;72192;52.114;5.424;2023-12-07T12:03:25;101994.69;;;0.55;100.00
81125;BME280;72192;52.114;5.424;2023-12-07T12:06:07;101980.81;;;0.48;100.00
81125;BME280;72192;52.114;5.424;2023-12-07T12:08:48;101978.97;;;0.50;100.00
81125;BME280;72192;52.114;5.424;2023-12-07T12:11:28;101977.19;;;0.51;100.00
81125;BME280;72192;52.114;5.424;2023-12-07T12:14:09;101972.66;;;0.53;100.00
81125;BME280;72192;52.114;5.424;2023-12-07T12:16:49;101961.88;;;0.56;100.00
81125;BME280;72192;52.114;5.424;2023-12-07T12:19:29;101958.06;;;0.62;100.00
81125;BME280;72192;52.114;5.424;2023-12-07T12:22:13;101955.41;;;0.62;100.00
81125;BME280;72192;52.114;5.424;2023-12-07T12:24:54;101959.63;;;0.66;100.00
81125;BME280;72192;52.114;5.424;2023-12-07T12:27:35;101949.78;;;0.68;100.00
81125;BME280;72192;52.114;5.424;2023-12-07T12:30:16;101943.34;;;0.73;100.00
81125;BME280;72192;52.114;5.424;2023-12-07T12:33:01;101940.53;;;0.76;100.00
81125;BME280;72192;52.114;5.424;2023-12-07T12:35:41;101933.75;;;0.88;100.00
81125;BME280;72192;52.114;5.424;2023-12-07T12:38:26;101938.84;;;0.93;100.00
81125;BME280;72192;52.114;5.424;2023-12-07T12:41:06;101930.97;;;0.91;100.00
81125;BME280;72192;52.114;5.424;2023-12-07T12:43:46;101919.16;;;0.97;100.00
81125;BME280;72192;52.114;5.424;2023-12-07T12:46:27;101916.56;;;0.95;100.00
81125;BME280;72192;52.114;5.424;2023-12-07T12:49:06;101911.91;;;1.00;100.00
81125;BME280;72192;52.114;5.424;2023-12-07T12:51:47;101901.13;;;1.03;100.00
81125;BME280;72192;52.114;5.424;2023-12-07T12:54:31;101903.41;;;1.11;100.00
81125;BME280;72192;52.114;5.424;2023-12-07T12:57:12;101891.13;;;1.08;100.00
81125;BME280;72192;52.114;5.424;2023-12-07T13:03:03;101884.53;;;1.15;100.00
81125;BME280;72192;52.114;5.424;2023-12-07T13:05:45;101874.38;;;1.24;100.00
81125;BME280;72192;52.114;5.424;2023-12-07T13:08:25;101877.69;;;1.29;100.00
81125;BME280;72192;52.114;5.424;2023-12-07T13:11:05;101862.72;;;1.26;100.00
81125;BME280;72192;52.114;5.424;2023-12-07T13:13:46;101856.06;;;1.35;100.00
81125;BME280;72192;52.114;5.424;2023-12-07T13:16:26;101848.81;;;1.38;100.00
81125;BME280;72192;52.114;5.424;2023-12-07T13:19:07;101837.06;;;1.42;100.00
81125;BME280;72192;52.114;5.424;2023-12-07T13:21:46;101822.81;;;1.43;100.00
81125;BME280;72192;52.114;5.424;2023-12-07T13:24:28;101818.13;;;1.49;100.00
81125;BME280;72192;52.114;5.424;2023-12-07T13:27:08;101816.81;;;1.56;100.00
81125;BME280;72192;52.114;5.424;2023-12-07T13:29:50;101813.94;;;1.60;100.00
81125;BME280;72192;52.114;5.424;2023-12-07T13:32:29;101808.25;;;1.66;100.00
81125;BME280;72192;52.114;5.424;2023-12-07T13:35:10;101821.66;;;1.65;100.00
81125;BME280;72192;52.114;5.424;2023-12-07T13:37:52;101825.97;;;1.67;100.00
81125;BME280;72192;52.114;5.424;2023-12-07T13:40:32;101808.97;;;1.70;100.00
81125;BME280;72192;52.114;5.424;2023-12-07T13:43:15;101805.09;;;1.76;100.00
81125;BME280;72192;52.114;5.424;2023-12-07T13:45:54;101797.22;;;1.74;100.00
81125;BME280;72192;52.114;5.424;2023-12-07T13:48:34;101792.59;;;1.78;100.00
81125;BME280;72192;52.114;5.424;2023-12-07T13:51:15;101797.75;;;1.81;100.00
81125;BME280;72192;52.114;5.424;2023-12-07T13:53:55;101795.00;;;1.82;100.00
81125;BME280;72192;52.114;5.424;2023-12-07T13:56:35;101788.03;;;1.80;100.00
81125;BME280;72192;52.114;5.424;2023-12-07T13:59:15;101792.41;;;1.81;100.00